sensor_id;sensor_type;location;lat;lon;timestamp;P1;durP1;ratioP1;P2;durP2;ratioP2
6527;SDS011;3297;42.664;23.256;2022-08-19T00:01:52;31.95;;;30.85;;
6527;SDS011;3297;42.664;23.256;2022-08-19T00:04:20;74.28;;;71.25;;
6527;SDS011;3297;42.664;23.256;2022-08-19T00:06:47;34.72;;;33.38;;
6527;SDS011;3297;42.664;23.256;2022-08-19T00:09:13;57.38;;;55.10;;
6527;SDS011;3297;42.664;23.256;2022-08-19T00:11:41;37.42;;;35.95;;
6527;SDS011;3297;42.664;23.256;2022-08-19T00:14:09;36.83;;;35.20;;
6527;SDS011;3297;42.664;23.256;2022-08-19T00:16:37;34.08;;;32.20;;
6527;SDS011;3297;42.664;23.256;2022-08-19T00:19:04;33.47;;;32.30;;
6527;SDS011;3297;42.664;23.256;2022-08-19T00:21:30;31.73;;;30.65;;
6527;SDS011;3297;42.664;23.256;2022-08-19T00:23:56;36.75;;;35.30;;
6527;SDS011;3297;42.664;23.256;2022-08-19T00:26:23;33.97;;;32.72;;
6527;SDS011;3297;42.664;23.256;2022-08-19T00:28:50;42.20;;;40.47;;
6527;SDS011;3297;42.664;23.256;2022-08-19T00:31:15;65.47;;;62.53;;
6527;SDS011;3297;42.664;23.256;2022-08-19T00:33:41;52.40;;;50.33;;
6527;SDS011;3297;42.664;23.256;2022-08-19T00:36:08;51.28;;;49.33;;
6527;SDS011;3297;42.664;23.256;2022-08-19T00:38:37;56.85;;;54.55;;
6527;SDS011;3297;42.664;23.256;2022-08-19T00:41:09;66.13;;;63.35;;
6527;SDS011;3297;42.664;23.256;2022-08-19T00:43:37;129.07;;;122.57;;
6527;SDS011;3297;42.664;23.256;2022-08-19T00:46:04;56.95;;;54.63;;
6527;SDS011;3297;42.664;23.256;2022-08-19T00:48:29;64.28;;;61.40;;
6527;SDS011;3297;42.664;23.256;2022-08-19T00:50:56;64.00;;;61.40;;
6527;SDS011;3297;42.664;23.256;2022-08-19T00:53:24;56.72;;;54.40;;
6527;SDS011;3297;42.664;23.256;2022-08-19T00:55:52;44.58;;;42.88;;
6527;SDS011;3297;42.664;23.256;2022-08-19T00:58:20;55.88;;;53.50;;
6527;SDS011;3297;42.664;23.256;2022-08-19T01:00:49;53.20;;;50.97;;
6527;SDS011;3297;42.664;23.256;2022-08-19T01:03:16;68.25;;;65.50;;
6527;SDS011;3297;42.664;23.256;2022-08-19T01:05:43;76.57;;;73.43;;
6527;SDS011;3297;42.664;23.256;2022-08-19T01:08:10;57.17;;;54.80;;
6527;SDS011;3297;42.664;23.256;2022-08-19T01:10:56;36.28;;;34.78;;
6527;SDS011;3297;42.664;23.256;2022-08-19T01:13:27;41.47;;;40.03;;
6527;SDS011;3297;42.664;23.256;2022-08-19T01:15:57;36.08;;;34.80;;
6527;SDS011;3297;42.664;23.256;2022-08-19T01:18:29;46.55;;;44.75;;
6527;SDS011;3297;42.664;23.256;2022-08-19T01:20:58;41.80;;;40.15;;
6527;SDS011;3297;42.664;23.256;2022-08-19T01:23:32;43.13;;;41.42;;
6527;SDS011;3297;42.664;23.256;2022-08-19T01:26:15;72.03;;;68.85;;
6527;SDS011;3297;42.664;23.256;2022-08-19T01:28:45;41.55;;;40.03;;
6527;SDS011;3297;42.664;23.256;2022-08-19T01:31:14;38.05;;;36.55;;
6527;SDS011;3297;42.664;23.256;2022-08-19T01:33:43;35.78;;;34.47;;
6527;SDS011;3297;42.664;23.256;2022-08-19T01:36:12;27.67;;;26.60;;
6527;SDS011;3297;42.664;23.256;2022-08-19T01:38:41;30.90;;;29.80;;
6527;SDS011;3297;42.664;23.256;2022-08-19T01:41:08;50.67;;;48.78;;
6527;SDS011;3297;42.664;23.256;2022-08-19T01:43:35;35.78;;;34.33;;
6527;SDS011;3297;42.664;23.256;2022-08-19T01:46:01;37.55;;;35.72;;
6527;SDS011;3297;42.664;23.256;2022-08-19T01:48:32;42.03;;;40.53;;
6527;SDS011;3297;42.664;23.256;2022-08-19T01:51:04;53.72;;;51.28;;
6527;SDS011;3297;42.664;23.256;2022-08-19T01:53:30;54.50;;;52.20;;
6527;SDS011;3297;42.664;23.256;2022-08-19T01:55:56;37.78;;;36.25;;
6527;SDS011;3297;42.664;23.256;2022-08-19T01:58:24;54.00;;;51.55;;
6527;SDS011;3297;42.664;23.256;2022-08-19T02:00:55;86.10;;;82.40;;
6527;SDS011;3297;42.664;23.256;2022-08-19T02:03:21;40.42;;;38.92;;
6527;SDS011;3297;42.664;23.256;2022-08-19T02:05:48;43.20;;;41.63;;
6527;SDS011;3297;42.664;23.256;2022-08-19T02:08:19;42.58;;;40.78;;
6527;SDS011;3297;42.664;23.256;2022-08-19T02:10:45;81.15;;;77.47;;
6527;SDS011;3297;42.664;23.256;2022-08-19T02:13:12;65.18;;;62.55;;
6527;SDS011;3297;42.664;23.256;2022-08-19T02:15:38;104.38;;;99.93;;
6527;SDS011;3297;42.664;23.256;2022-08-19T02:18:05;71.45;;;68.30;;
6527;SDS011;3297;42.664;23.256;2022-08-19T02:20:33;52.58;;;50.00;;
6527;SDS011;3297;42.664;23.256;2022-08-19T02:22:59;65.82;;;62.78;;
6527;SDS011;3297;42.664;23.256;2022-08-19T02:25:26;70.43;;;67.28;;
6527;SDS011;3297;42.664;23.256;2022-08-19T02:27:52;75.70;;;72.60;;
6527;SDS011;3297;42.664;23.256;2022-08-19T02:30:19;72.75;;;69.43;;
6527;SDS011;3297;42.664;23.256;2022-08-19T02:32:46;108.70;;;104.15;;
6527;SDS011;3297;42.664;23.256;2022-08-19T02:35:14;104.95;;;100.38;;
6527;SDS011;3297;42.664;23.256;2022-08-19T02:37:41;70.03;;;66.82;;
6527;SDS011;3297;42.664;23.256;2022-08-19T02:40:25;72.15;;;68.75;;
6527;SDS011;3297;42.664;23.256;2022-08-19T02:42:52;66.93;;;63.88;;
6527;SDS011;3297;42.664;23.256;2022-08-19T02:45:17;198.90;;;188.27;;
6527;SDS011;3297;42.664;23.256;2022-08-19T02:47:43;153.82;;;145.82;;
6527;SDS011;3297;42.664;23.256;2022-08-19T02:50:09;55.58;;;53.10;;
6527;SDS011;3297;42.664;23.256;2022-08-19T02:52:34;53.38;;;50.80;;
6527;SDS011;3297;42.664;23.256;2022-08-19T02:55:01;54.22;;;51.83;;
6527;SDS011;3297;42.664;23.256;2022-08-19T02:57:27;53.28;;;49.92;;
6527;SDS011;3297;42.664;23.256;2022-08-19T02:59:53;69.18;;;65.05;;
6527;SDS011;3297;42.664;23.256;2022-08-19T03:02:19;77.75;;;74.28;;
6527;SDS011;3297;42.664;23.256;2022-08-19T03:04:45;85.60;;;81.28;;
6527;SDS011;3297;42.664;23.256;2022-08-19T03:07:14;99.75;;;95.25;;
6527;SDS011;3297;42.664;23.256;2022-08-19T03:09:40;82.78;;;79.15;;
6527;SDS011;3297;42.664;23.256;2022-08-19T03:12:07;143.13;;;135.68;;
6527;SDS011;3297;42.664;23.256;2022-08-19T03:14:33;70.70;;;67.75;;
6527;SDS011;3297;42.664;23.256;2022-08-19T03:16:59;67.97;;;64.88;;
6527;SDS011;3297;42.664;23.256;2022-08-19T03:19:26;68.22;;;65.07;;
6527;SDS011;3297;42.664;23.256;2022-08-19T03:21:52;74.15;;;70.47;;
6527;SDS011;3297;42.664;23.256;2022-08-19T03:24:18;78.32;;;74.63;;
6527;SDS011;3297;42.664;23.256;2022-08-19T03:26:46;70.35;;;66.88;;
6527;SDS011;3297;42.664;23.256;2022-08-19T03:29:18;160.30;;;152.60;;
6527;SDS011;3297;42.664;23.256;2022-08-19T03:31:45;81.85;;;77.55;;
6527;SDS011;3297;42.664;23.256;2022-08-19T03:34:12;90.07;;;85.97;;
6527;SDS011;3297;42.664;23.256;2022-08-19T03:36:39;99.28;;;94.72;;
6527;SDS011;3297;42.664;23.256;2022-08-19T03:39:05;120.32;;;114.72;;
6527;SDS011;3297;42.664;23.256;2022-08-19T03:41:31;123.10;;;117.38;;
6527;SDS011;3297;42.664;23.256;2022-08-19T03:44:02;207.07;;;196.77;;
6527;SDS011;3297;42.664;23.256;2022-08-19T03:46:30;156.27;;;148.05;;
6527;SDS011;3297;42.664;23.256;2022-08-19T03:48:57;137.85;;;130.32;;
6527;SDS011;3297;42.664;23.256;2022-08-19T03:51:28;99.28;;;94.00;;
6527;SDS011;3297;42.664;23.256;2022-08-19T03:53:59;81.05;;;77.40;;
6527;SDS011;3297;42.664;23.256;2022-08-19T03:56:27;173.43;;;164.70;;
6527;SDS011;3297;42.664;23.256;2022-08-19T03:58:57;117.22;;;110.95;;
6527;SDS011;3297;42.664;23.256;2022-08-19T04:01:25;143.45;;;136.65;;
6527;SDS011;3297;42.664;23.256;2022-08-19T04:03:52;92.10;;;88.15;;
6527;SDS011;3297;42.664;23.256;2022-08-19T04:06:19;114.53;;;109.18;;
6527;SDS011;3297;42.664;23.256;2022-08-19T04:08:48;57.63;;;54.83;;
6527;SDS011;3297;42.664;23.256;2022-08-19T04:11:20;140.50;;;134.13;;
6527;SDS011;3297;42.664;23.256;2022-08-19T04:13:47;102.78;;;98.25;;
6527;SDS011;3297;42.664;23.256;2022-08-19T04:16:14;127.35;;;120.15;;
6527;SDS011;3297;42.664;23.256;2022-08-19T04:18:40;116.90;;;110.85;;
6527;SDS011;3297;42.664;23.256;2022-08-19T04:21:07;108.03;;;102.70;;
6527;SDS011;3297;42.664;23.256;2022-08-19T04:23:33;113.03;;;106.93;;
6527;SDS011;3297;42.664;23.256;2022-08-19T04:26:01;98.05;;;93.00;;
6527;SDS011;3297;42.664;23.256;2022-08-19T04:28:27;181.45;;;172.68;;
6527;SDS011;3297;42.664;23.256;2022-08-19T04:30:54;112.35;;;106.95;;
6527;SDS011;3297;42.664;23.256;2022-08-19T04:33:22;153.15;;;146.07;;
6527;SDS011;3297;42.664;23.256;2022-08-19T04:35:50;183.55;;;174.38;;
6527;SDS011;3297;42.664;23.256;2022-08-19T04:38:20;92.80;;;87.55;;
6527;SDS011;3297;42.664;23.256;2022-08-19T04:40:50;44.08;;;40.90;;
6527;SDS011;3297;42.664;23.256;2022-08-19T04:43:35;92.00;;;87.18;;
6527;SDS011;3297;42.664;23.256;2022-08-19T04:46:09;219.52;;;209.27;;
6527;SDS011;3297;42.664;23.256;2022-08-19T04:48:36;193.00;;;184.35;;
6527;SDS011;3297;42.664;23.256;2022-08-19T04:51:06;101.97;;;97.05;;
6527;SDS011;3297;42.664;23.256;2022-08-19T04:53:34;66.88;;;62.88;;
6527;SDS011;3297;42.664;23.256;2022-08-19T04:56:04;61.10;;;58.03;;
6527;SDS011;3297;42.664;23.256;2022-08-19T04:58:33;118.35;;;112.10;;
6527;SDS011;3297;42.664;23.256;2022-08-19T05:00:59;198.93;;;188.75;;
6527;SDS011;3297;42.664;23.256;2022-08-19T05:03:25;231.25;;;219.85;;
6527;SDS011;3297;42.664;23.256;2022-08-19T05:05:51;216.48;;;205.32;;
6527;SDS011;3297;42.664;23.256;2022-08-19T05:08:18;104.72;;;99.07;;
6527;SDS011;3297;42.664;23.256;2022-08-19T05:10:49;96.05;;;90.60;;
6527;SDS011;3297;42.664;23.256;2022-08-19T05:13:17;95.50;;;90.82;;
6527;SDS011;3297;42.664;23.256;2022-08-19T05:15:44;233.52;;;222.18;;
6527;SDS011;3297;42.664;23.256;2022-08-19T05:18:19;290.90;;;275.27;;
6527;SDS011;3297;42.664;23.256;2022-08-19T05:21:07;94.93;;;90.53;;
6527;SDS011;3297;42.664;23.256;2022-08-19T05:23:54;175.10;;;166.27;;
6527;SDS011;3297;42.664;23.256;2022-08-19T05:26:20;166.25;;;157.63;;
6527;SDS011;3297;42.664;23.256;2022-08-19T05:28:45;280.95;;;266.17;;
6527;SDS011;3297;42.664;23.256;2022-08-19T05:31:11;290.15;;;275.05;;
6527;SDS011;3297;42.664;23.256;2022-08-19T05:33:37;218.18;;;206.73;;
6527;SDS011;3297;42.664;23.256;2022-08-19T05:36:04;113.50;;;108.13;;
6527;SDS011;3297;42.664;23.256;2022-08-19T05:38:33;95.60;;;91.03;;
6527;SDS011;3297;42.664;23.256;2022-08-19T05:40:59;223.73;;;212.50;;
6527;SDS011;3297;42.664;23.256;2022-08-19T05:43:24;147.95;;;140.43;;
6527;SDS011;3297;42.664;23.256;2022-08-19T05:45:50;190.75;;;181.90;;
6527;SDS011;3297;42.664;23.256;2022-08-19T05:48:16;468.20;;;441.80;;
6527;SDS011;3297;42.664;23.256;2022-08-19T05:50:45;280.52;;;266.88;;
6527;SDS011;3297;42.664;23.256;2022-08-19T05:53:12;150.27;;;143.35;;
6527;SDS011;3297;42.664;23.256;2022-08-19T05:55:41;153.48;;;146.18;;
6527;SDS011;3297;42.664;23.256;2022-08-19T05:58:06;150.05;;;142.20;;
6527;SDS011;3297;42.664;23.256;2022-08-19T06:00:33;38.13;;;36.05;;
6527;SDS011;3297;42.664;23.256;2022-08-19T06:02:59;42.22;;;39.45;;
6527;SDS011;3297;42.664;23.256;2022-08-19T06:05:28;158.93;;;150.75;;
6527;SDS011;3297;42.664;23.256;2022-08-19T06:07:55;135.32;;;128.50;;
6527;SDS011;3297;42.664;23.256;2022-08-19T06:10:21;86.55;;;81.95;;
6527;SDS011;3297;42.664;23.256;2022-08-19T06:12:47;44.78;;;41.95;;
6527;SDS011;3297;42.664;23.256;2022-08-19T06:15:14;56.78;;;53.17;;
6527;SDS011;3297;42.664;23.256;2022-08-19T06:17:40;51.13;;;48.17;;
6527;SDS011;3297;42.664;23.256;2022-08-19T06:20:08;35.67;;;33.72;;
6527;SDS011;3297;42.664;23.256;2022-08-19T06:22:45;111.97;;;106.32;;
6527;SDS011;3297;42.664;23.256;2022-08-19T06:25:12;93.95;;;89.25;;
6527;SDS011;3297;42.664;23.256;2022-08-19T06:27:39;190.88;;;180.63;;
6527;SDS011;3297;42.664;23.256;2022-08-19T06:30:05;153.32;;;145.80;;
6527;SDS011;3297;42.664;23.256;2022-08-19T06:32:31;82.65;;;77.88;;
6527;SDS011;3297;42.664;23.256;2022-08-19T06:34:57;48.80;;;46.35;;
6527;SDS011;3297;42.664;23.256;2022-08-19T06:37:23;43.17;;;40.67;;
6527;SDS011;3297;42.664;23.256;2022-08-19T06:39:48;73.53;;;69.22;;
6527;SDS011;3297;42.664;23.256;2022-08-19T06:42:14;43.00;;;40.20;;
6527;SDS011;3297;42.664;23.256;2022-08-19T06:44:44;48.55;;;45.72;;
6527;SDS011;3297;42.664;23.256;2022-08-19T06:47:13;43.15;;;40.70;;
6527;SDS011;3297;42.664;23.256;2022-08-19T06:49:40;59.42;;;55.58;;
6527;SDS011;3297;42.664;23.256;2022-08-19T06:52:07;94.63;;;89.63;;
6527;SDS011;3297;42.664;23.256;2022-08-19T06:54:33;90.15;;;85.32;;
6527;SDS011;3297;42.664;23.256;2022-08-19T06:57:01;77.85;;;73.70;;
6527;SDS011;3297;42.664;23.256;2022-08-19T06:59:27;76.18;;;72.07;;
6527;SDS011;3297;42.664;23.256;2022-08-19T07:01:54;71.60;;;66.88;;
6527;SDS011;3297;42.664;23.256;2022-08-19T07:04:25;64.18;;;58.17;;
6527;SDS011;3297;42.664;23.256;2022-08-19T07:06:59;38.58;;;36.63;;
6527;SDS011;3297;42.664;23.256;2022-08-19T07:09:34;38.25;;;36.20;;
6527;SDS011;3297;42.664;23.256;2022-08-19T07:12:04;34.40;;;32.35;;
6527;SDS011;3297;42.664;23.256;2022-08-19T07:14:31;48.05;;;45.15;;
6527;SDS011;3297;42.664;23.256;2022-08-19T07:17:00;42.83;;;40.30;;
6527;SDS011;3297;42.664;23.256;2022-08-19T07:19:26;57.80;;;54.30;;
6527;SDS011;3297;42.664;23.256;2022-08-19T07:21:53;61.63;;;58.00;;
6527;SDS011;3297;42.664;23.256;2022-08-19T07:24:20;68.40;;;64.95;;
6527;SDS011;3297;42.664;23.256;2022-08-19T07:26:50;307.25;;;292.20;;
6527;SDS011;3297;42.664;23.256;2022-08-19T07:29:18;80.13;;;75.60;;
6527;SDS011;3297;42.664;23.256;2022-08-19T07:31:49;68.40;;;64.63;;
6527;SDS011;3297;42.664;23.256;2022-08-19T07:34:15;57.53;;;54.33;;
6527;SDS011;3297;42.664;23.256;2022-08-19T07:36:42;69.72;;;40.55;;
6527;SDS011;3297;42.664;23.256;2022-08-19T07:39:16;50.67;;;47.10;;
6527;SDS011;3297;42.664;23.256;2022-08-19T07:41:44;60.13;;;55.97;;
6527;SDS011;3297;42.664;23.256;2022-08-19T07:44:11;84.50;;;80.30;;
6527;SDS011;3297;42.664;23.256;2022-08-19T07:46:38;62.53;;;58.70;;
6527;SDS011;3297;42.664;23.256;2022-08-19T07:49:08;54.92;;;52.08;;
6527;SDS011;3297;42.664;23.256;2022-08-19T07:51:38;107.68;;;102.68;;
6527;SDS011;3297;42.664;23.256;2022-08-19T07:54:04;76.13;;;71.63;;
6527;SDS011;3297;42.664;23.256;2022-08-19T07:56:29;45.85;;;43.42;;
6527;SDS011;3297;42.664;23.256;2022-08-19T07:58:55;58.95;;;55.83;;
6527;SDS011;3297;42.664;23.256;2022-08-19T08:01:22;76.60;;;71.97;;
6527;SDS011;3297;42.664;23.256;2022-08-19T08:03:51;30.98;;;29.45;;
6527;SDS011;3297;42.664;23.256;2022-08-19T08:06:36;34.65;;;32.90;;
6527;SDS011;3297;42.664;23.256;2022-08-19T08:09:23;33.70;;;31.15;;
6527;SDS011;3297;42.664;23.256;2022-08-19T08:11:53;36.35;;;34.80;;
6527;SDS011;3297;42.664;23.256;2022-08-19T08:14:24;49.33;;;45.83;;
6527;SDS011;3297;42.664;23.256;2022-08-19T08:16:55;51.63;;;49.00;;
6527;SDS011;3297;42.664;23.256;2022-08-19T08:19:23;36.25;;;34.00;;
6527;SDS011;3297;42.664;23.256;2022-08-19T08:21:50;34.13;;;32.67;;
6527;SDS011;3297;42.664;23.256;2022-08-19T08:24:16;40.92;;;39.08;;
6527;SDS011;3297;42.664;23.256;2022-08-19T08:26:42;36.78;;;34.90;;
6527;SDS011;3297;42.664;23.256;2022-08-19T08:29:09;31.23;;;29.00;;
6527;SDS011;3297;42.664;23.256;2022-08-19T08:31:38;34.95;;;33.10;;
6527;SDS011;3297;42.664;23.256;2022-08-19T08:34:06;31.67;;;30.05;;
6527;SDS011;3297;42.664;23.256;2022-08-19T08:36:32;30.77;;;29.40;;
6527;SDS011;3297;42.664;23.256;2022-08-19T08:38:59;33.40;;;31.83;;
6527;SDS011;3297;42.664;23.256;2022-08-19T08:43:54;30.27;;;28.90;;
6527;SDS011;3297;42.664;23.256;2022-08-19T08:46:35;29.02;;;27.65;;
6527;SDS011;3297;42.664;23.256;2022-08-19T08:51:39;33.60;;;31.95;;
6527;SDS011;3297;42.664;23.256;2022-08-19T08:54:10;29.35;;;27.40;;
6527;SDS011;3297;42.664;23.256;2022-08-19T08:56:39;43.40;;;41.55;;
6527;SDS011;3297;42.664;23.256;2022-08-19T08:59:16;42.13;;;40.15;;
6527;SDS011;3297;42.664;23.256;2022-08-19T09:01:46;37.85;;;35.72;;
6527;SDS011;3297;42.664;23.256;2022-08-19T09:04:13;28.52;;;26.33;;
6527;SDS011;3297;42.664;23.256;2022-08-19T09:06:49;27.90;;;26.23;;
6527;SDS011;3297;42.664;23.256;2022-08-19T09:09:26;27.70;;;26.58;;
6527;SDS011;3297;42.664;23.256;2022-08-19T09:12:10;39.28;;;37.53;;
6527;SDS011;3297;42.664;23.256;2022-08-19T09:14:50;24.15;;;23.15;;
6527;SDS011;3297;42.664;23.256;2022-08-19T09:17:20;26.10;;;24.98;;
6527;SDS011;3297;42.664;23.256;2022-08-19T09:20:37;30.70;;;28.95;;
6527;SDS011;3297;42.664;23.256;2022-08-19T09:22:45;28.02;;;27.13;;
6527;SDS011;3297;42.664;23.256;2022-08-19T09:25:13;29.60;;;28.33;;
6527;SDS011;3297;42.664;23.256;2022-08-19T09:27:41;36.75;;;35.15;;
6527;SDS011;3297;42.664;23.256;2022-08-19T09:30:08;37.30;;;35.72;;
6527;SDS011;3297;42.664;23.256;2022-08-19T09:32:40;56.22;;;53.92;;
6527;SDS011;3297;42.664;23.256;2022-08-19T09:35:07;47.20;;;45.22;;
6527;SDS011;3297;42.664;23.256;2022-08-19T09:37:33;75.85;;;72.88;;
6527;SDS011;3297;42.664;23.256;2022-08-19T09:39:59;81.75;;;77.32;;
6527;SDS011;3297;42.664;23.256;2022-08-19T09:42:25;71.88;;;68.55;;
6527;SDS011;3297;42.664;23.256;2022-08-19T09:44:50;55.95;;;53.72;;
6527;SDS011;3297;42.664;23.256;2022-08-19T09:47:16;69.45;;;66.35;;
6527;SDS011;3297;42.664;23.256;2022-08-19T09:49:41;77.28;;;74.20;;
6527;SDS011;3297;42.664;23.256;2022-08-19T09:52:11;85.60;;;81.82;;
6527;SDS011;3297;42.664;23.256;2022-08-19T09:54:37;97.88;;;93.75;;
6527;SDS011;3297;42.664;23.256;2022-08-19T09:57:04;72.57;;;69.82;;
6527;SDS011;3297;42.664;23.256;2022-08-19T09:59:30;48.38;;;46.42;;
6527;SDS011;3297;42.664;23.256;2022-08-19T10:01:56;50.72;;;48.72;;
6527;SDS011;3297;42.664;23.256;2022-08-19T10:04:22;63.70;;;61.00;;
6527;SDS011;3297;42.664;23.256;2022-08-19T10:06:48;79.00;;;75.25;;
6527;SDS011;3297;42.664;23.256;2022-08-19T10:09:16;51.22;;;48.70;;
6527;SDS011;3297;42.664;23.256;2022-08-19T10:11:44;69.05;;;66.35;;
6527;SDS011;3297;42.664;23.256;2022-08-19T10:14:13;81.32;;;77.97;;
6527;SDS011;3297;42.664;23.256;2022-08-19T10:16:38;64.72;;;61.75;;
6527;SDS011;3297;42.664;23.256;2022-08-19T10:19:06;45.85;;;43.90;;
6527;SDS011;3297;42.664;23.256;2022-08-19T10:21:32;66.35;;;63.30;;
6527;SDS011;3297;42.664;23.256;2022-08-19T10:24:00;51.25;;;49.13;;
6527;SDS011;3297;42.664;23.256;2022-08-19T10:26:30;33.10;;;31.45;;
6527;SDS011;3297;42.664;23.256;2022-08-19T10:28:58;65.00;;;62.30;;
6527;SDS011;3297;42.664;23.256;2022-08-19T10:31:26;59.67;;;57.28;;
6527;SDS011;3297;42.664;23.256;2022-08-19T10:33:54;73.47;;;70.20;;
6527;SDS011;3297;42.664;23.256;2022-08-19T10:36:24;53.58;;;51.42;;
6527;SDS011;3297;42.664;23.256;2022-08-19T10:38:53;61.03;;;58.33;;
6527;SDS011;3297;42.664;23.256;2022-08-19T10:41:23;65.47;;;62.65;;
6527;SDS011;3297;42.664;23.256;2022-08-19T10:43:51;77.55;;;74.30;;
6527;SDS011;3297;42.664;23.256;2022-08-19T10:46:19;86.57;;;82.72;;
6527;SDS011;3297;42.664;23.256;2022-08-19T10:48:48;79.03;;;75.75;;
6527;SDS011;3297;42.664;23.256;2022-08-19T10:51:14;61.72;;;58.92;;
6527;SDS011;3297;42.664;23.256;2022-08-19T10:53:58;51.58;;;49.20;;
6527;SDS011;3297;42.664;23.256;2022-08-19T10:56:25;58.50;;;56.13;;
6527;SDS011;3297;42.664;23.256;2022-08-19T10:59:10;71.68;;;68.63;;
6527;SDS011;3297;42.664;23.256;2022-08-19T11:01:39;53.38;;;51.28;;
6527;SDS011;3297;42.664;23.256;2022-08-19T11:04:06;53.15;;;50.50;;
6527;SDS011;3297;42.664;23.256;2022-08-19T11:06:35;54.35;;;52.13;;
6527;SDS011;3297;42.664;23.256;2022-08-19T11:09:01;88.43;;;84.43;;
6527;SDS011;3297;42.664;23.256;2022-08-19T11:11:27;88.22;;;84.45;;
6527;SDS011;3297;42.664;23.256;2022-08-19T11:13:53;63.35;;;60.85;;
6527;SDS011;3297;42.664;23.256;2022-08-19T11:16:20;81.93;;;78.28;;
6527;SDS011;3297;42.664;23.256;2022-08-19T11:18:52;54.97;;;52.30;;
6527;SDS011;3297;42.664;23.256;2022-08-19T11:21:27;45.38;;;43.42;;
6527;SDS011;3297;42.664;23.256;2022-08-19T11:23:57;41.30;;;39.63;;
6527;SDS011;3297;42.664;23.256;2022-08-19T11:26:26;45.67;;;43.38;;
6527;SDS011;3297;42.664;23.256;2022-08-19T11:28:52;40.25;;;38.35;;
6527;SDS011;3297;42.664;23.256;2022-08-19T11:31:22;64.72;;;61.20;;
6527;SDS011;3297;42.664;23.256;2022-08-19T11:33:50;48.67;;;46.67;;
6527;SDS011;3297;42.664;23.256;2022-08-19T11:36:17;42.55;;;40.47;;
6527;SDS011;3297;42.664;23.256;2022-08-19T11:38:44;44.00;;;41.55;;
6527;SDS011;3297;42.664;23.256;2022-08-19T11:41:10;64.90;;;61.30;;
6527;SDS011;3297;42.664;23.256;2022-08-19T11:43:36;43.95;;;41.78;;
6527;SDS011;3297;42.664;23.256;2022-08-19T11:46:05;58.42;;;56.10;;
6527;SDS011;3297;42.664;23.256;2022-08-19T11:48:33;51.38;;;49.17;;
6527;SDS011;3297;42.664;23.256;2022-08-19T11:51:02;40.78;;;39.03;;
6527;SDS011;3297;42.664;23.256;2022-08-19T11:53:32;38.00;;;36.65;;
6527;SDS011;3297;42.664;23.256;2022-08-19T11:55:59;53.13;;;50.72;;
6527;SDS011;3297;42.664;23.256;2022-08-19T11:58:25;50.28;;;46.90;;
6527;SDS011;3297;42.664;23.256;2022-08-19T12:00:51;68.43;;;65.18;;
6527;SDS011;3297;42.664;23.256;2022-08-19T12:03:16;69.68;;;66.63;;
6527;SDS011;3297;42.664;23.256;2022-08-19T12:05:43;98.70;;;93.55;;
6527;SDS011;3297;42.664;23.256;2022-08-19T12:08:09;57.00;;;54.63;;
6527;SDS011;3297;42.664;23.256;2022-08-19T12:10:35;40.15;;;38.15;;
6527;SDS011;3297;42.664;23.256;2022-08-19T12:13:01;52.97;;;50.47;;
6527;SDS011;3297;42.664;23.256;2022-08-19T12:15:27;54.40;;;51.97;;
6527;SDS011;3297;42.664;23.256;2022-08-19T12:17:54;41.50;;;39.60;;
6527;SDS011;3297;42.664;23.256;2022-08-19T12:20:21;53.55;;;51.08;;
6527;SDS011;3297;42.664;23.256;2022-08-19T12:22:48;72.18;;;68.97;;
6527;SDS011;3297;42.664;23.256;2022-08-19T12:25:14;72.63;;;69.25;;
6527;SDS011;3297;42.664;23.256;2022-08-19T12:27:40;35.95;;;33.90;;
6527;SDS011;3297;42.664;23.256;2022-08-19T12:30:06;61.42;;;58.83;;
6527;SDS011;3297;42.664;23.256;2022-08-19T12:32:33;43.78;;;42.22;;
6527;SDS011;3297;42.664;23.256;2022-08-19T12:34:59;52.45;;;50.42;;
6527;SDS011;3297;42.664;23.256;2022-08-19T12:37:24;73.75;;;70.18;;
6527;SDS011;3297;42.664;23.256;2022-08-19T12:39:50;73.80;;;70.78;;
6527;SDS011;3297;42.664;23.256;2022-08-19T12:42:16;65.55;;;62.65;;
6527;SDS011;3297;42.664;23.256;2022-08-19T12:44:43;61.03;;;58.53;;
6527;SDS011;3297;42.664;23.256;2022-08-19T12:47:09;94.32;;;90.03;;
6527;SDS011;3297;42.664;23.256;2022-08-19T12:49:37;44.92;;;42.88;;
6527;SDS011;3297;42.664;23.256;2022-08-19T12:52:07;36.17;;;34.67;;
6527;SDS011;3297;42.664;23.256;2022-08-19T12:54:34;66.13;;;62.85;;
6527;SDS011;3297;42.664;23.256;2022-08-19T12:57:04;56.30;;;53.50;;
6527;SDS011;3297;42.664;23.256;2022-08-19T12:59:34;70.15;;;67.40;;
6527;SDS011;3297;42.664;23.256;2022-08-19T13:02:01;31.80;;;30.55;;
6527;SDS011;3297;42.664;23.256;2022-08-19T13:04:30;62.40;;;59.63;;
6527;SDS011;3297;42.664;23.256;2022-08-19T13:06:56;32.75;;;31.30;;
6527;SDS011;3297;42.664;23.256;2022-08-19T13:09:21;33.25;;;31.92;;
6527;SDS011;3297;42.664;23.256;2022-08-19T13:11:47;58.78;;;56.38;;
6527;SDS011;3297;42.664;23.256;2022-08-19T13:14:13;35.22;;;33.95;;
6527;SDS011;3297;42.664;23.256;2022-08-19T13:16:38;38.42;;;36.15;;
6527;SDS011;3297;42.664;23.256;2022-08-19T13:19:05;46.25;;;44.05;;
6527;SDS011;3297;42.664;23.256;2022-08-19T13:21:30;50.58;;;48.42;;
6527;SDS011;3297;42.664;23.256;2022-08-19T13:23:56;54.78;;;52.45;;
6527;SDS011;3297;42.664;23.256;2022-08-19T13:26:22;67.40;;;64.25;;
6527;SDS011;3297;42.664;23.256;2022-08-19T13:28:48;85.93;;;82.15;;
6527;SDS011;3297;42.664;23.256;2022-08-19T13:31:34;36.72;;;35.15;;
6527;SDS011;3297;42.664;23.256;2022-08-19T13:34:26;63.45;;;59.92;;
6527;SDS011;3297;42.664;23.256;2022-08-19T13:36:58;36.42;;;34.97;;
6527;SDS011;3297;42.664;23.256;2022-08-19T13:39:24;53.95;;;51.90;;
6527;SDS011;3297;42.664;23.256;2022-08-19T13:41:50;42.38;;;40.65;;
6527;SDS011;3297;42.664;23.256;2022-08-19T13:44:16;38.28;;;36.25;;
6527;SDS011;3297;42.664;23.256;2022-08-19T13:46:46;57.05;;;54.80;;
6527;SDS011;3297;42.664;23.256;2022-08-19T13:49:14;63.58;;;60.47;;
6527;SDS011;3297;42.664;23.256;2022-08-19T13:51:40;57.53;;;54.88;;
6527;SDS011;3297;42.664;23.256;2022-08-19T13:54:08;50.10;;;47.88;;
6527;SDS011;3297;42.664;23.256;2022-08-19T13:56:38;69.72;;;66.80;;
6527;SDS011;3297;42.664;23.256;2022-08-19T13:59:05;48.20;;;46.20;;
6527;SDS011;3297;42.664;23.256;2022-08-19T14:01:31;42.42;;;40.38;;
6527;SDS011;3297;42.664;23.256;2022-08-19T14:03:56;54.22;;;52.08;;
6527;SDS011;3297;42.664;23.256;2022-08-19T14:06:22;78.05;;;74.80;;
6527;SDS011;3297;42.664;23.256;2022-08-19T14:08:48;46.70;;;44.60;;
6527;SDS011;3297;42.664;23.256;2022-08-19T14:11:14;43.25;;;41.28;;
6527;SDS011;3297;42.664;23.256;2022-08-19T14:13:40;75.00;;;71.35;;
6527;SDS011;3297;42.664;23.256;2022-08-19T14:16:09;46.20;;;44.20;;
6527;SDS011;3297;42.664;23.256;2022-08-19T14:18:37;50.65;;;48.33;;
6527;SDS011;3297;42.664;23.256;2022-08-19T14:21:04;79.93;;;76.47;;
6527;SDS011;3297;42.664;23.256;2022-08-19T14:23:31;59.17;;;56.78;;
6527;SDS011;3297;42.664;23.256;2022-08-19T14:26:08;36.00;;;34.45;;
6527;SDS011;3297;42.664;23.256;2022-08-19T14:28:37;51.78;;;49.70;;
6527;SDS011;3297;42.664;23.256;2022-08-19T14:31:03;30.30;;;28.95;;
6527;SDS011;3297;42.664;23.256;2022-08-19T14:33:29;37.85;;;36.17;;
6527;SDS011;3297;42.664;23.256;2022-08-19T14:35:55;32.60;;;31.08;;
6527;SDS011;3297;42.664;23.256;2022-08-19T14:38:20;50.55;;;48.28;;
6527;SDS011;3297;42.664;23.256;2022-08-19T14:40:46;54.58;;;51.83;;
6527;SDS011;3297;42.664;23.256;2022-08-19T14:43:12;69.43;;;66.35;;